createdAt,value
2022-08-04T00:02:48.134Z,7.10
2022-08-04T00:07:56.777Z,6.90
2022-08-04T00:13:04.660Z,7.63
2022-08-04T00:18:12.992Z,7.80
2022-08-04T00:23:19.448Z,8.43
2022-08-04T00:28:26.101Z,11.03
2022-08-04T00:33:32.049Z,8.40
2022-08-04T00:38:39.482Z,8.67
2022-08-04T00:43:53.469Z,8.10
2022-08-04T00:49:04.569Z,8.07
2022-08-04T00:54:27.855Z,7.73
2022-08-04T01:00:06.029Z,8.50
2022-08-04T01:05:20.045Z,9.93
2022-08-04T01:10:49.936Z,8.30
2022-08-04T01:16:07.956Z,8.53
2022-08-04T01:21:46.766Z,9.63
2022-08-04T01:27:07.136Z,9.20
2022-08-04T01:32:27.742Z,10.30
2022-08-04T01:37:50.969Z,9.40
2022-08-04T01:42:58.669Z,10.53
2022-08-04T01:48:05.331Z,12.13
2022-08-04T01:53:10.982Z,11.43
2022-08-04T01:58:19.351Z,11.53
2022-08-04T02:04:20.674Z,11.73
2022-08-04T02:08:46.779Z,10.83
2022-08-04T02:14:21.014Z,9.87
2022-08-04T02:19:35.583Z,9.57
2022-08-04T02:24:49.971Z,9.87
2022-08-04T02:29:58.363Z,10.07
2022-08-04T02:35:16.012Z,11.17
2022-08-04T02:40:22.858Z,10.23
2022-08-04T02:45:30.778Z,9.57
2022-08-04T02:50:38.132Z,9.97
2022-08-04T02:55:50.928Z,10.90
2022-08-04T03:00:53.034Z,10.23
2022-08-04T03:06:13.701Z,11.37
2022-08-04T03:11:28.133Z,11.03
2022-08-04T03:16:54.281Z,11.07
2022-08-04T03:22:08.201Z,11.83
2022-08-04T03:27:37.673Z,11.10
2022-08-04T03:32:51.874Z,13.40
2022-08-04T03:38:09.364Z,11.33
2022-08-04T03:43:57.921Z,13.43
2022-08-04T03:48:56.124Z,13.30
2022-08-04T03:54:04.545Z,13.47
2022-08-04T03:59:13.271Z,14.37
2022-08-04T04:04:36.399Z,14.10
2022-08-04T04:10:07.237Z,15.27
2022-08-04T04:15:28.278Z,15.70
2022-08-04T04:21:00.660Z,15.67
2022-08-04T04:26:28.644Z,15.27
2022-08-04T04:31:37.546Z,16.33
2022-08-04T04:37:01.330Z,16.57
2022-08-04T04:42:30.284Z,15.20
2022-08-04T04:48:09.416Z,17.10
2022-08-04T04:53:06.608Z,16.87
2022-08-04T04:58:14.999Z,19.07
2022-08-04T05:03:44.310Z,17.63
2022-08-04T05:08:58.599Z,17.10
2022-08-04T05:14:36.880Z,18.27
2022-08-04T05:19:28.742Z,17.03
2022-08-04T05:24:38.232Z,15.47
2022-08-04T05:29:49.232Z,15.13
2022-08-04T05:35:03.295Z,16.17
2022-08-04T05:40:11.245Z,14.57
2022-08-04T05:45:16.790Z,15.30
2022-08-04T05:50:24.135Z,15.10
2022-08-04T05:55:48.939Z,14.73
2022-08-04T06:00:41.610Z,15.00
2022-08-04T06:05:49.066Z,13.87
2022-08-04T06:10:57.389Z,13.70
2022-08-04T06:16:05.613Z,13.75
2022-08-04T06:21:16.017Z,13.68
2022-08-04T06:26:20.531Z,13.93
2022-08-04T06:32:28.052Z,13.40
2022-08-04T06:36:44.175Z,13.32
2022-08-04T06:42:14.934Z,13.50
2022-08-04T06:47:00.635Z,12.98
2022-08-04T06:52:08.396Z,12.65
2022-08-04T06:57:16.575Z,12.53
2022-08-04T07:02:24.895Z,12.00
2022-08-04T07:07:36.689Z,11.83
2022-08-04T07:12:39.397Z,11.70
2022-08-04T07:17:45.933Z,11.78
2022-08-04T07:22:53.290Z,11.80
2022-08-04T07:27:59.022Z,12.07
2022-08-04T07:33:04.590Z,11.38
2022-08-04T07:38:11.645Z,11.15
2022-08-04T07:43:18.875Z,11.63
2022-08-04T07:48:24.841Z,10.13
2022-08-04T07:53:54.822Z,10.60
2022-08-04T07:58:38.514Z,10.08
2022-08-04T08:03:44.758Z,9.45
2022-08-04T08:08:50.311Z,9.88
2022-08-04T08:13:56.354Z,8.70
2022-08-04T08:19:03.823Z,8.80
2022-08-04T08:24:12.861Z,8.50
2022-08-04T08:29:19.400Z,7.95
2022-08-04T08:34:28.177Z,7.20
2022-08-04T08:39:49.978Z,6.28
2022-08-04T08:45:04.121Z,6.90
2022-08-04T08:50:15.442Z,6.20
2022-08-04T08:55:30.992Z,6.12
2022-08-04T09:01:00.121Z,5.62
2022-08-04T09:06:17.520Z,5.67
2022-08-04T09:11:28.717Z,5.05
2022-08-04T09:16:39.906Z,5.78
2022-08-04T09:22:00.411Z,4.55
2022-08-04T09:27:08.765Z,4.87
2022-08-04T09:32:17.608Z,4.50
2022-08-04T09:37:46.084Z,4.03
2022-08-04T09:43:04.619Z,4.65
2022-08-04T09:48:31.350Z,5.08
2022-08-04T09:53:51.580Z,4.85
2022-08-04T09:59:21.166Z,5.00
2022-08-04T10:04:29.699Z,4.50
2022-08-04T10:09:47.076Z,4.65
2022-08-04T10:15:16.112Z,4.12
2022-08-04T10:20:44.561Z,4.30
2022-08-04T10:26:10.618Z,4.15
2022-08-04T10:31:19.208Z,4.92
2022-08-04T10:36:31.119Z,4.62
2022-08-04T10:41:51.477Z,4.90
2022-08-04T10:47:05.727Z,4.75
2022-08-04T10:52:14.256Z,4.58
2022-08-04T10:57:37.226Z,4.25
2022-08-04T11:02:58.216Z,3.85
2022-08-04T11:08:14.343Z,4.08
2022-08-04T11:13:30.080Z,4.28
2022-08-04T11:18:41.617Z,3.92
2022-08-04T11:23:59.133Z,3.40
2022-08-04T11:29:22.185Z,3.95
2022-08-04T11:34:29.021Z,3.75
2022-08-04T11:39:46.112Z,3.45
2022-08-04T11:45:05.293Z,3.22
2022-08-04T11:50:22.635Z,6.78
2022-08-04T11:55:33.220Z,3.65
2022-08-04T12:00:46.962Z,3.25
2022-08-04T12:06:11.568Z,3.65
2022-08-04T12:11:34.206Z,3.90
2022-08-04T12:17:16.516Z,4.50
2022-08-04T12:22:31.351Z,3.60
2022-08-04T12:27:56.184Z,3.75
2022-08-04T12:33:07.156Z,4.30
2022-08-04T12:38:16.019Z,4.60
2022-08-04T12:43:38.045Z,4.10
2022-08-04T12:48:46.479Z,3.67
2022-08-04T12:53:56.587Z,3.80
2022-08-04T12:59:12.474Z,7.05
2022-08-04T13:04:28.831Z,4.20
2022-08-04T13:09:34.734Z,4.20
2022-08-04T13:14:44.306Z,3.80
2022-08-04T13:19:53.079Z,4.40
2022-08-04T13:25:18.267Z,4.12
2022-08-04T13:30:10.429Z,3.85
2022-08-04T13:35:17.392Z,4.87
2022-08-04T13:40:25.686Z,3.90
2022-08-04T13:45:34.882Z,3.98
2022-08-04T13:50:48.686Z,3.90
2022-08-04T13:56:00.433Z,4.67
2022-08-04T14:01:14.017Z,6.20
2022-08-04T14:06:25.738Z,4.65
2022-08-04T14:12:09.085Z,4.15
2022-08-04T14:17:07.526Z,4.37
2022-08-04T14:22:35.411Z,5.15
2022-08-04T14:27:58.697Z,4.05
2022-08-04T14:34:03.126Z,4.50
2022-08-04T14:38:16.989Z,5.30
2022-08-04T14:43:22.757Z,3.80
2022-08-04T14:48:28.489Z,4.42
2022-08-04T14:53:40.039Z,4.47
2022-08-04T14:58:46.671Z,4.30
2022-08-04T15:03:53.234Z,4.58
2022-08-04T15:09:03.074Z,4.60
2022-08-04T15:14:09.409Z,5.08
2022-08-04T15:19:18.936Z,4.97
2022-08-04T15:24:26.372Z,5.42
2022-08-04T15:30:00.416Z,4.83
2022-08-04T15:34:54.607Z,5.40
2022-08-04T15:40:08.837Z,5.35
2022-08-04T15:45:20.945Z,5.30
2022-08-04T15:50:28.502Z,4.97
2022-08-04T15:55:39.069Z,5.30
2022-08-04T16:00:55.120Z,7.05
2022-08-04T16:06:02.123Z,7.95
2022-08-04T16:11:30.999Z,6.10
2022-08-04T16:16:49.695Z,5.70
2022-08-04T16:22:00.123Z,5.65
2022-08-04T16:27:14.839Z,6.00
2022-08-04T16:32:23.821Z,6.20
2022-08-04T16:37:40.809Z,6.55
2022-08-04T16:42:47.152Z,6.55
2022-08-04T16:47:55.441Z,9.08
2022-08-04T16:53:02.175Z,6.22
2022-08-04T16:58:07.750Z,6.55
2022-08-04T17:03:13.733Z,7.10
2022-08-04T17:08:29.477Z,7.08
2022-08-04T17:14:02.708Z,7.97
2022-08-04T17:18:44.860Z,7.17
2022-08-04T17:24:12.743Z,6.90
2022-08-04T17:29:04.569Z,6.83
2022-08-04T17:34:15.825Z,6.47
2022-08-04T17:39:25.799Z,6.47
2022-08-04T17:44:38.525Z,7.20
2022-08-04T17:49:52.534Z,7.05
2022-08-04T17:54:54.080Z,6.60
2022-08-04T18:00:01.276Z,6.65
2022-08-04T18:05:11.831Z,6.50
2022-08-04T18:10:30.899Z,6.72
2022-08-04T18:15:30.007Z,7.42
2022-08-04T18:20:37.571Z,7.08
2022-08-04T18:25:51.717Z,8.33
2022-08-04T18:30:56.240Z,8.65
2022-08-04T18:36:34.313Z,7.72
2022-08-04T18:41:09.902Z,7.42
2022-08-04T18:46:16.501Z,7.45
2022-08-04T18:51:25.247Z,7.78
2022-08-04T18:56:32.498Z,7.10
2022-08-04T19:02:09.294Z,7.67
2022-08-04T19:06:46.507Z,7.70
2022-08-04T19:11:54.468Z,7.55
2022-08-04T19:16:59.060Z,7.30
2022-08-04T19:22:08.087Z,8.45
2022-08-04T19:27:13.384Z,7.28
2022-08-04T19:32:20.456Z,7.85
2022-08-04T19:37:57.032Z,8.20
2022-08-04T19:42:34.859Z,7.75
2022-08-04T19:48:16.268Z,8.00
2022-08-04T19:52:52.099Z,7.35
2022-08-04T19:57:54.973Z,7.05
2022-08-04T20:03:00.331Z,7.70
2022-08-04T20:08:05.922Z,7.45
2022-08-04T20:13:12.453Z,7.25
2022-08-04T20:18:35.515Z,7.50
2022-08-04T20:23:47.923Z,7.28
2022-08-04T20:28:36.711Z,7.90
2022-08-04T20:33:42.211Z,7.33
2022-08-04T20:38:53.095Z,8.78
2022-08-04T20:43:57.756Z,7.35
2022-08-04T20:49:03.200Z,7.75
2022-08-04T20:54:16.864Z,7.42
2022-08-04T20:59:17.137Z,7.85
2022-08-04T21:04:32.103Z,7.20
2022-08-04T21:09:50.112Z,7.60
2022-08-04T21:14:46.854Z,8.23
2022-08-04T21:19:53.629Z,8.33
2022-08-04T21:24:59.154Z,7.67
2022-08-04T21:30:10.421Z,6.70
2022-08-04T21:35:16.169Z,6.72
2022-08-04T21:40:32.530Z,6.53
2022-08-04T21:45:36.403Z,6.67
2022-08-04T21:50:35.210Z,6.72
2022-08-04T21:56:05.598Z,6.10
2022-08-04T22:00:48.986Z,6.28
2022-08-04T22:05:55.806Z,5.90
2022-08-04T22:11:01.498Z,6.20
2022-08-04T22:16:07.120Z,5.47
2022-08-04T22:21:12.680Z,5.95
2022-08-04T22:26:27.003Z,5.85
2022-08-04T22:31:27.810Z,6.08
2022-08-04T22:36:34.833Z,5.50
2022-08-04T22:41:48.939Z,5.33
2022-08-04T22:46:49.931Z,5.47
2022-08-04T22:51:55.390Z,5.42
2022-08-04T22:57:02.791Z,5.20
2022-08-04T23:02:09.107Z,5.12
2022-08-04T23:07:23.883Z,4.90
2022-08-04T23:12:25.614Z,5.72
2022-08-04T23:17:32.918Z,5.50
2022-08-04T23:22:41.386Z,4.95
2022-08-04T23:27:48.142Z,4.80
2022-08-04T23:32:55.207Z,5.08
2022-08-04T23:38:31.697Z,4.83
2022-08-04T23:43:12.390Z,5.05
2022-08-04T23:48:20.895Z,4.92
2022-08-04T23:53:22.641Z,4.97
2022-08-04T23:58:28.699Z,4.83
